Time;durP1;ratioP1;P1;durP2;ratioP2;P2;SDS_P1;SDS_P2;PMS_P1;PMS_P2;Temp;Humidity;BMP_temperature;BMP_pressure;BME280_temperature;BME280_humidity;BME280_pressure;Samples;Min_cycle;Max_cycle;Signal;HPM_P1;HPM_P2
2023/10/22 00:00:07;;;;;;;7.45;3.70;;;16.10;79.60;;;;;;5038489;28;20409;-65
2023/10/22 00:02:36;;;;;;;4.72;3.05;;;16.00;80.00;;;;;;5021059;28;20093;-65
2023/10/22 00:05:06;;;;;;;4.40;3.20;;;15.90;79.90;;;;;;5038281;28;20079;-66
2023/10/22 00:07:35;;;;;;;4.32;2.75;;;15.90;79.70;;;;;;5021052;28;20025;-66
2023/10/22 00:10:02;;;;;;;3.35;2.78;;;15.90;79.80;;;;;;5038308;28;20028;-65
2023/10/22 00:12:28;;;;;;;4.53;2.92;;;15.90;79.60;;;;;;5038234;28;20022;-66
2023/10/22 00:14:54;;;;;;;3.70;2.83;;;15.90;79.60;;;;;;5038249;28;20013;-65
2023/10/22 00:17:20;;;;;;;4.70;2.88;;;15.80;79.70;;;;;;5038157;28;20026;-65
2023/10/22 00:19:47;;;;;;;4.22;2.72;;;15.80;79.70;;;;;;5038145;28;20099;-65
2023/10/22 00:22:14;;;;;;;5.97;2.95;;;15.80;79.70;;;;;;5020711;28;20073;-65
2023/10/22 00:24:41;;;;;;;4.38;2.85;;;15.80;79.80;;;;;;5038233;28;20021;-65
2023/10/22 00:27:07;;;;;;;4.53;2.70;;;15.80;79.90;;;;;;5038154;28;20040;-66
2023/10/22 00:29:33;;;;;;;4.07;2.67;;;15.70;80.00;;;;;;5038511;28;20097;-66
2023/10/22 00:31:58;;;;;;;4.53;2.83;;;15.70;80.00;;;;;;5038484;28;20457;-65
2023/10/22 00:34:24;;;;;;;3.15;2.40;;;15.70;80.00;;;;;;5037825;28;20383;-66
2023/10/22 00:36:55;;;;;;;3.33;2.70;;;15.70;79.90;;;;;;5037656;28;20042;-65
2023/10/22 00:39:21;;;;;;;4.45;3.05;;;15.70;79.90;;;;;;5038345;28;20342;-65
2023/10/22 00:41:47;;;;;;;3.75;2.60;;;15.70;80.00;;;;;;5038012;28;20075;-65
2023/10/22 00:44:14;;;;;;;3.83;3.08;;;15.60;79.90;;;;;;5037580;28;20025;-65
2023/10/22 00:46:40;;;;;;;3.22;2.80;;;15.60;79.90;;;;;;5037584;28;20033;-65
2023/10/22 00:49:09;;;;;;;4.97;3.00;;;15.50;79.80;;;;;;5037835;28;20073;-64
2023/10/22 00:51:35;;;;;;;4.75;2.95;;;15.50;79.90;;;;;;5037510;28;20022;-65
2023/10/22 00:54:01;;;;;;;4.78;3.10;;;15.40;80.00;;;;;;5019970;28;20450;-65
2023/10/22 00:56:30;;;;;;;4.97;3.35;;;15.40;80.00;;;;;;5037738;28;20128;-65
2023/10/22 00:58:56;;;;;;;5.63;3.10;;;15.40;80.10;;;;;;5036511;28;20029;-65
2023/10/22 01:01:22;;;;;;;3.00;2.70;;;15.30;80.20;;;;;;5037307;28;20370;-65
2023/10/22 01:03:50;;;;;;;5.07;2.72;;;15.30;80.30;;;;;;5037545;28;20123;-64
2023/10/22 01:06:18;;;;;;;6.03;3.13;;;15.30;80.30;;;;;;5037156;28;20021;-65
2023/10/22 01:08:45;;;;;;;4.93;3.30;;;15.20;80.20;;;;;;5037235;28;20036;-65
2023/10/22 01:11:11;;;;;;;6.00;3.05;;;15.20;80.30;;;;;;5019959;28;20032;-65
2023/10/22 01:13:40;;;;;;;4.80;3.22;;;15.20;80.30;;;;;;5037062;28;20037;-65
2023/10/22 01:16:08;;;;;;;5.75;3.42;;;15.20;80.20;;;;;;5037663;28;20018;-65
2023/10/22 01:18:35;;;;;;;3.80;2.78;;;15.10;80.30;;;;;;5036999;28;20029;-65
2023/10/22 01:21:04;;;;;;;3.85;3.10;;;15.10;80.30;;;;;;5037290;28;20030;-65
2023/10/22 01:23:39;;;;;;;4.03;3.17;;;15.10;80.40;;;;;;5037444;28;20324;-64
2023/10/22 01:26:09;;;;;;;4.65;3.10;;;15.10;80.30;;;;;;5036828;28;20087;-65
2023/10/22 01:28:36;;;;;;;4.43;2.90;;;15.00;80.40;;;;;;5037622;28;20025;-65
2023/10/22 01:31:04;;;;;;;4.80;3.13;;;15.00;80.40;;;;;;5037089;28;20075;-65
2023/10/22 01:33:30;;;;;;;5.10;3.40;;;14.90;80.40;;;;;;5036929;28;20029;-65
2023/10/22 01:35:56;;;;;;;4.05;3.05;;;14.90;80.40;;;;;;5036457;28;20053;-65
2023/10/22 01:38:23;;;;;;;4.10;2.90;;;14.90;80.40;;;;;;5036926;28;20075;-65
2023/10/22 01:40:50;;;;;;;4.63;3.25;;;14.90;80.40;;;;;;5037119;28;20025;-65
2023/10/22 01:43:17;;;;;;;6.30;3.40;;;14.90;80.50;;;;;;5036483;28;20358;-65
2023/10/22 01:45:44;;;;;;;4.63;3.40;;;14.80;80.50;;;;;;5036667;28;20017;-65
2023/10/22 01:48:10;;;;;;;4.93;3.55;;;14.80;80.50;;;;;;5019487;28;20025;-66
2023/10/22 01:50:36;;;;;;;6.80;3.90;;;14.80;80.50;;;;;;5036988;28;20017;-67
2023/10/22 01:53:05;;;;;;;5.53;3.60;;;14.80;80.50;;;;;;5036446;28;20036;-66
2023/10/22 01:55:31;;;;;;;6.13;3.60;;;14.80;80.80;;;;;;5036248;28;20029;-66
2023/10/22 01:57:56;;;;;;;6.97;3.13;;;14.70;80.70;;;;;;5036818;28;20025;-66
2023/10/22 02:00:22;;;;;;;5.00;3.50;;;14.70;80.70;;;;;;5018836;28;20063;-66
2023/10/22 02:02:49;;;;;;;5.63;3.38;;;14.60;80.80;;;;;;5036218;28;20060;-66
2023/10/22 02:05:15;;;;;;;4.97;3.42;;;14.70;80.70;;;;;;5035972;28;20561;-66
2023/10/22 02:07:41;;;;;;;4.32;3.40;;;14.60;80.80;;;;;;5018655;28;20112;-66
2023/10/22 02:10:16;;;;;;;5.50;3.78;;;14.60;80.80;;;;;;5036027;28;20346;-66
2023/10/22 02:12:42;;;;;;;6.68;4.13;;;14.60;80.70;;;;;;5036070;28;20045;-66
2023/10/22 02:15:08;;;;;;;6.72;4.10;;;14.60;80.80;;;;;;5036177;28;20461;-66
2023/10/22 02:17:35;;;;;;;5.43;3.80;;;14.50;80.80;;;;;;5035918;28;20367;-66
2023/10/22 02:20:08;;;;;;;5.80;3.70;;;14.50;80.80;;;;;;5035806;28;20017;-66
2023/10/22 02:22:37;;;;;;;6.22;3.47;;;14.50;80.90;;;;;;5035694;28;20534;-66
2023/10/22 02:25:07;;;;;;;6.10;3.90;;;14.40;80.90;;;;;;5035871;28;20078;-66
2023/10/22 02:27:33;;;;;;;6.22;3.53;;;14.40;80.80;;;;;;5036287;28;20021;-66
2023/10/22 02:30:02;;;;;;;6.50;3.90;;;14.40;80.80;;;;;;5018393;28;20025;-66
2023/10/22 02:32:40;;;;;;;5.57;3.63;;;14.40;80.90;;;;;;5036236;28;20113;-67
2023/10/22 02:35:07;;;;;;;6.15;3.70;;;14.40;80.90;;;;;;5035605;28;20443;-66
2023/10/22 02:37:34;;;;;;;7.05;3.65;;;14.30;80.90;;;;;;5035551;28;20034;-64
2023/10/22 02:40:03;;;;;;;6.80;4.07;;;14.30;80.90;;;;;;5035574;28;20052;-64
2023/10/22 02:45:10;;;;;;;6.35;4.22;;;14.30;80.80;;;;;;5035877;28;20397;-65
2023/10/22 02:47:36;;;;;;;4.22;3.50;;;14.30;80.90;;;;;;5035733;28;20021;-67
2023/10/22 02:50:04;;;;;;;5.70;3.95;;;14.20;80.80;;;;;;5035424;28;20026;-64
2023/10/22 02:52:38;;;;;;;5.10;3.65;;;14.20;80.80;;;;;;5035331;28;20084;-65
2023/10/22 02:55:09;;;;;;;7.18;3.90;;;14.10;80.70;;;;;;5035313;28;20034;-64
2023/10/22 02:57:35;;;;;;;5.55;3.92;;;14.10;80.90;;;;;;5035868;28;20021;-66
2023/10/22 03:00:01;;;;;;;6.32;3.97;;;14.10;81.00;;;;;;5035359;28;20421;-66
2023/10/22 03:02:27;;;;;;;5.38;3.90;;;14.00;81.10;;;;;;5035314;28;20014;-66
2023/10/22 03:04:53;;;;;;;7.07;4.00;;;14.00;81.10;;;;;;5035158;28;20072;-64
2023/10/22 03:07:19;;;;;;;7.10;4.15;;;14.00;81.10;;;;;;5035375;28;20037;-64
2023/10/22 03:10:00;;;;;;;6.30;3.83;;;14.00;81.00;;;;;;5035238;28;20112;-64
2023/10/22 03:12:27;;;;;;;9.07;3.80;;;14.00;81.10;;;;;;5035759;28;20014;-67
2023/10/22 03:14:54;;;;;;;6.63;4.03;;;13.90;81.00;;;;;;5035339;28;20029;-66
2023/10/22 03:17:24;;;;;;;6.22;3.60;;;13.90;81.00;;;;;;5035157;28;20443;-66
2023/10/22 03:19:53;;;;;;;6.13;3.70;;;13.90;81.00;;;;;;5035696;28;20075;-66
2023/10/22 03:22:20;;;;;;;5.93;4.07;;;13.90;80.90;;;;;;5037677;28;20039;-66
2023/10/22 03:24:50;;;;;;;7.45;4.00;;;13.90;80.90;;;;;;5039213;28;20422;-66
2023/10/22 03:27:16;;;;;;;6.53;4.25;;;13.90;81.00;;;;;;5039107;28;20339;-66
2023/10/22 03:29:41;;;;;;;5.78;4.03;;;13.80;81.00;;;;;;5039095;28;20018;-66
2023/10/22 03:32:12;;;;;;;6.55;3.80;;;13.80;81.20;;;;;;5039570;28;20163;-66
2023/10/22 03:34:38;;;;;;;4.72;3.20;;;13.80;81.20;;;;;;5039222;28;20018;-66
2023/10/22 03:37:05;;;;;;;5.30;3.30;;;13.70;81.10;;;;;;5038770;28;20057;-66
2023/10/22 03:39:37;;;;;;;6.28;3.55;;;13.70;80.90;;;;;;5039233;28;20112;-66
2023/10/22 03:42:05;;;;;;;6.60;3.55;;;13.70;80.90;;;;;;5038778;28;20041;-66
2023/10/22 03:44:31;;;;;;;5.32;3.65;;;13.70;80.90;;;;;;5038704;28;20029;-65
2023/10/22 03:46:57;;;;;;;5.72;3.70;;;13.60;81.00;;;;;;5038673;28;20423;-66
2023/10/22 03:49:23;;;;;;;6.45;3.75;;;13.60;81.10;;;;;;5038768;28;20025;-66
2023/10/22 03:51:49;;;;;;;6.80;3.80;;;13.50;81.10;;;;;;5038719;28;20010;-66
2023/10/22 03:54:15;;;;;;;5.68;3.53;;;13.60;81.10;;;;;;5038964;28;20041;-67
2023/10/22 03:56:41;;;;;;;5.45;3.55;;;13.50;81.10;;;;;;5039143;28;20021;-66
2023/10/22 03:59:07;;;;;;;5.50;3.75;;;13.60;81.00;;;;;;5039106;28;20030;-66
2023/10/22 04:01:33;;;;;;;4.63;3.75;;;13.50;81.10;;;;;;5038532;28;20021;-66
2023/10/22 04:04:02;;;;;;;5.45;3.38;;;13.50;81.10;;;;;;5038395;28;20040;-66
2023/10/22 04:06:31;;;;;;;4.18;3.38;;;13.50;81.20;;;;;;5038866;28;20486;-66
2023/10/22 04:09:00;;;;;;;8.98;3.47;;;13.50;81.20;;;;;;5038899;28;20021;-66
2023/10/22 04:11:35;;;;;;;6.13;3.60;;;13.50;81.10;;;;;;5038561;28;20033;-66
2023/10/22 04:14:11;;;;;;;6.60;3.30;;;13.40;81.00;;;;;;5038783;28;20025;-66
2023/10/22 04:16:44;;;;;;;6.57;4.00;;;13.40;80.90;;;;;;5038783;28;20026;-66
2023/10/22 04:19:10;;;;;;;;;;;13.40;81.00;;;;;;5039171;28;20453;-66
2023/10/22 04:21:39;;;;;;;4.55;3.42;;;13.40;81.30;;;;;;5038149;28;19904;-66
2023/10/22 04:24:06;;;;;;;5.80;3.63;;;13.40;81.30;;;;;;5037965;28;20466;-66
2023/10/22 04:26:32;;;;;;;5.30;3.50;;;13.40;81.10;;;;;;5037985;28;20029;-66
2023/10/22 04:29:01;;;;;;;5.40;3.30;;;13.40;81.10;;;;;;5038530;28;20320;-65
2023/10/22 04:31:33;;;;;;;4.18;3.45;;;13.40;81.00;;;;;;5038148;28;20025;-65
2023/10/22 04:34:00;;;;;;;4.72;3.58;;;13.40;80.90;;;;;;5038091;28;20505;-66
2023/10/22 04:36:28;;;;;;;5.32;3.63;;;13.30;80.90;;;;;;5020222;28;20045;-66
2023/10/22 04:38:54;;;;;;;5.45;3.58;;;13.30;81.10;;;;;;5037795;28;20040;-66
2023/10/22 04:41:20;;;;;;;6.13;3.60;;;13.30;81.10;;;;;;5038574;28;20320;-67
2023/10/22 04:43:47;;;;;;;4.90;3.60;;;13.20;81.10;;;;;;5037697;28;20028;-65
2023/10/22 04:46:16;;;;;;;6.05;4.03;;;13.30;81.20;;;;;;5037579;28;20167;-64
2023/10/22 04:48:44;;;;;;;4.57;3.33;;;13.20;81.10;;;;;;5037943;28;20028;-66
2023/10/22 04:51:18;;;;;;;5.13;3.63;;;13.20;81.20;;;;;;5037603;28;20053;-67
2023/10/22 04:53:49;;;;;;;4.70;3.40;;;13.20;81.10;;;;;;5037684;28;20022;-64
2023/10/22 04:56:15;;;;;;;5.53;4.05;;;13.20;81.10;;;;;;5037743;28;20029;-66
2023/10/22 04:58:43;;;;;;;5.18;3.88;;;13.10;80.90;;;;;;5037433;28;20032;-66
2023/10/22 05:01:11;;;;;;;6.15;4.13;;;13.10;81.00;;;;;;5038150;28;20080;-66
2023/10/22 05:03:38;;;;;;;4.20;3.30;;;13.10;81.00;;;;;;5037209;28;20025;-66
2023/10/22 05:06:06;;;;;;;4.35;3.33;;;13.00;81.10;;;;;;5037430;28;20053;-66
2023/10/22 05:08:36;;;;;;;4.82;3.65;;;13.10;81.00;;;;;;5037263;28;20609;-65
2023/10/22 05:11:05;;;;;;;6.82;3.83;;;13.00;81.10;;;;;;5037748;28;20049;-66
2023/10/22 05:13:33;;;;;;;5.30;3.50;;;13.10;81.10;;;;;;5037021;28;20025;-66
2023/10/22 05:16:10;;;;;;;6.35;4.00;;;13.10;81.10;;;;;;5019664;28;20026;-66
2023/10/22 05:18:38;;;;;;;4.40;3.40;;;13.00;81.00;;;;;;5036936;28;20033;-66
2023/10/22 05:21:07;;;;;;;4.28;3.50;;;13.00;81.00;;;;;;5036912;28;20068;-66
2023/10/22 05:23:36;;;;;;;6.18;3.70;;;12.90;80.90;;;;;;5036914;28;20025;-66
2023/10/22 05:26:11;;;;;;;5.05;3.80;;;12.90;81.00;;;;;;5036898;28;20080;-66
2023/10/22 05:28:45;;;;;;;7.30;4.13;;;12.90;80.90;;;;;;5036786;28;20026;-66
2023/10/22 05:31:15;;;;;;;5.70;3.72;;;12.90;81.00;;;;;;5037446;28;20071;-65
2023/10/22 05:33:45;;;;;;;5.55;3.85;;;12.90;81.20;;;;;;5036688;28;20032;-66
2023/10/22 05:36:19;;;;;;;5.70;3.63;;;12.90;81.10;;;;;;5036688;28;20515;-66
2023/10/22 05:38:51;;;;;;;8.10;4.85;;;12.80;81.00;;;;;;5037245;28;20026;-66
2023/10/22 05:41:27;;;;;;;6.95;4.68;;;12.80;81.10;;;;;;5037158;28;20074;-66
2023/10/22 05:44:09;;;;;;;7.43;5.15;;;12.80;81.20;;;;;;5036205;28;20036;-66
2023/10/22 05:46:36;;;;;;;7.80;4.78;;;12.80;81.20;;;;;;5037065;28;20034;-66
2023/10/22 05:49:03;;;;;;;7.13;4.90;;;12.80;81.30;;;;;;5036486;28;20092;-66
2023/10/22 05:51:32;;;;;;;6.43;4.00;;;12.80;81.30;;;;;;5036359;28;20033;-66
2023/10/22 05:54:11;;;;;;;;;;;;;;;;;;;;;
2023/10/22 05:56:55;;;;;;;6.80;3.90;;;12.80;81.20;;;;;;5036281;28;20460;-66
2023/10/22 05:59:22;;;;;;;5.63;3.92;;;12.80;81.10;;;;;;5036891;28;20035;-65
2023/10/22 06:01:51;;;;;;;6.90;3.88;;;12.80;81.20;;;;;;5036270;28;20026;-66
2023/10/22 06:04:19;;;;;;;6.32;3.50;;;12.80;81.20;;;;;;5036105;28;20438;-66
2023/10/22 06:06:48;;;;;;;5.75;3.30;;;12.80;81.30;;;;;;5036046;28;20438;-65
2023/10/22 06:11:44;;;;;;;6.88;4.40;;;12.80;81.30;;;;;;5036849;28;20422;-66
2023/10/22 06:14:13;;;;;;;6.80;3.10;;;12.70;81.20;;;;;;5018421;28;20347;-66
2023/10/22 06:16:38;;;;;;;7.78;3.33;;;12.70;81.30;;;;;;5036534;28;20427;-66
2023/10/22 06:19:07;;;;;;;5.65;3.40;;;12.80;81.50;;;;;;5018554;28;20030;-66
2023/10/22 06:21:46;;;;;;;4.60;3.65;;;12.80;81.60;;;;;;5035759;28;20033;-66
2023/10/22 06:24:13;;;;;;;5.38;3.25;;;12.80;81.60;;;;;;5035676;28;20076;-66
2023/10/22 06:26:40;;;;;;;7.50;3.67;;;12.90;81.80;;;;;;5035701;28;20029;-66
2023/10/22 06:29:07;;;;;;;5.25;3.33;;;13.10;81.80;;;;;;5036062;28;20021;-66
2023/10/22 06:31:36;;;;;;;5.00;3.47;;;13.30;81.80;;;;;;5036267;28;20419;-66
2023/10/22 06:34:03;;;;;;;6.75;3.80;;;13.50;81.70;;;;;;5035618;28;20022;-66
2023/10/22 06:36:29;;;;;;;7.32;5.28;;;13.70;81.70;;;;;;5035583;28;20050;-66
2023/10/22 06:38:55;;;;;;;8.73;5.47;;;13.90;81.80;;;;;;5036060;28;20381;-66
2023/10/22 06:43:47;;;;;;;6.70;4.88;;;14.40;81.50;;;;;;5036015;28;20022;-67
2023/10/22 06:46:17;;;;;;;5.95;3.95;;;14.60;81.10;;;;;;5035347;28;20037;-66
2023/10/22 06:48:44;;;;;;;7.45;4.00;;;14.90;80.60;;;;;;5035458;28;20104;-66
2023/10/22 06:51:18;;;;;;;5.53;4.00;;;15.20;80.50;;;;;;5035437;28;20120;-66
2023/10/22 06:56:12;;;;;;;5.82;3.50;;;15.70;79.90;;;;;;5034738;28;19929;-66
2023/10/22 06:58:40;;;;;;;4.88;3.70;;;15.90;79.50;;;;;;5035335;28;20044;-66
2023/10/22 07:01:12;;;;;;;5.35;3.65;;;16.20;78.90;;;;;;5035318;28;20108;-66
2023/10/22 07:03:41;;;;;;;5.75;3.90;;;16.40;78.50;;;;;;5035244;28;20382;-66
2023/10/22 07:06:08;;;;;;;7.00;4.38;;;16.70;78.00;;;;;;5035466;28;20040;-66
2023/10/22 07:08:36;;;;;;;4.38;3.53;;;16.90;77.70;;;;;;5035223;28;20084;-66
2023/10/22 07:11:03;;;;;;;5.38;3.97;;;17.10;77.30;;;;;;5035102;28;20036;-66
2023/10/22 07:13:30;;;;;;;5.28;2.97;;;17.30;77.00;;;;;;5035247;28;20048;-66
2023/10/22 07:15:56;;;;;;;3.33;2.78;;;17.40;76.70;;;;;;5035518;28;20089;-67
2023/10/22 07:23:13;;;;;;;4.43;2.40;;;18.00;75.70;;;;;;5035918;28;20033;-67
2023/10/22 07:25:39;;;;;;;5.30;2.63;;;18.20;75.10;;;;;;5034983;28;20030;-65
2023/10/22 07:28:05;;;;;;;2.97;2.65;;;18.20;74.90;;;;;;5035595;28;20109;-65
2023/10/22 07:30:33;;;;;;;3.92;2.90;;;18.40;74.40;;;;;;5035086;28;20025;-66
2023/10/22 07:35:25;;;;;;;3.33;2.60;;;18.60;74.10;;;;;;5034957;28;20056;-66
2023/10/22 07:37:51;;;;;;;2.92;2.63;;;18.70;73.90;;;;;;5018241;28;20029;-66
2023/10/22 07:40:20;;;;;;;4.43;2.60;;;18.70;73.50;;;;;;5017654;28;20045;-66
2023/10/22 07:42:48;;;;;;;3.22;2.53;;;18.80;73.20;;;;;;5018353;28;20018;-66
2023/10/22 07:45:14;;;;;;;8.25;2.90;;;18.80;73.20;;;;;;5035003;28;20022;-67
2023/10/22 07:47:40;;;;;;;2.97;2.50;;;18.90;73.30;;;;;;5017453;28;20064;-66
2023/10/22 07:50:07;;;;;;;3.53;2.60;;;18.90;73.00;;;;;;5017477;28;20029;-66
2023/10/22 07:52:34;;;;;;;3.65;2.50;;;18.90;73.20;;;;;;5035132;28;20052;-67
2023/10/22 07:55:01;;;;;;;2.53;2.30;;;18.90;73.10;;;;;;5035023;28;20121;-67
2023/10/22 07:57:28;;;;;;;3.00;2.53;;;19.00;73.10;;;;;;5035332;28;20025;-67
2023/10/22 07:59:57;;;;;;;3.63;2.30;;;19.00;73.20;;;;;;5035014;28;20029;-67
2023/10/22 08:02:23;;;;;;;2.40;2.20;;;19.10;73.10;;;;;;5034983;28;20453;-67
2023/10/22 08:04:53;;;;;;;3.72;2.25;;;19.10;72.90;;;;;;5034708;28;20076;-66
2023/10/22 08:07:25;;;;;;;3.45;2.50;;;19.20;73.00;;;;;;5035386;28;20029;-66
2023/10/22 08:12:16;;;;;;;4.38;2.22;;;19.20;73.00;;;;;;5038586;28;20028;-67
2023/10/22 08:14:52;;;;;;;3.97;2.40;;;19.20;72.60;;;;;;5038220;28;20041;-67
2023/10/22 08:17:20;;;;;;;5.05;2.45;;;19.30;72.60;;;;;;5038212;28;20402;-67
2023/10/22 08:19:49;;;;;;;4.65;2.25;;;19.30;72.50;;;;;;5038127;28;20021;-67
2023/10/22 08:22:18;;;;;;;2.13;1.90;;;19.30;72.20;;;;;;5038558;28;20033;-66
2023/10/22 08:24:49;;;;;;;2.97;2.05;;;19.40;72.30;;;;;;5038051;28;20052;-66
2023/10/22 08:27:16;;;;;;;3.95;2.22;;;19.40;72.30;;;;;;5037932;28;20030;-66
2023/10/22 08:29:46;;;;;;;3.08;2.22;;;19.40;71.90;;;;;;5038490;28;20058;-67
2023/10/22 08:32:16;;;;;;;4.88;2.17;;;19.40;71.00;;;;;;5037841;28;20033;-65
2023/10/22 08:34:45;;;;;;;4.30;2.40;;;19.50;71.20;;;;;;5037838;28;20071;-67
2023/10/22 08:37:12;;;;;;;2.70;2.40;;;19.50;71.30;;;;;;5037594;28;20120;-67
2023/10/22 08:39:43;;;;;;;4.72;2.80;;;19.50;70.80;;;;;;5038365;28;20339;-67
2023/10/22 08:42:16;;;;;;;5.07;2.50;;;19.40;71.20;;;;;;5038016;28;20057;-67
2023/10/22 08:44:46;;;;;;;4.93;2.60;;;19.40;71.40;;;;;;5037960;28;20029;-67
2023/10/22 08:47:22;;;;;;;2.97;1.80;;;19.50;71.20;;;;;;5037568;28;20080;-67
2023/10/22 08:49:56;;;;;;;3.30;2.20;;;19.60;71.60;;;;;;5038181;28;20041;-67
2023/10/22 08:52:27;;;;;;;;;;;19.60;71.70;;;;;;5020610;28;20026;-67
2023/10/22 08:54:55;;;;;;;3.15;1.83;;;19.60;69.90;;;;;;5037773;28;20004;-67
2023/10/22 08:57:24;;;;;;;2.05;1.83;;;19.70;71.30;;;;;;5037463;28;20414;-67
2023/10/22 08:59:51;;;;;;;4.43;2.13;;;19.70;71.50;;;;;;5037410;28;20087;-67
2023/10/22 09:02:21;;;;;;;4.20;2.95;;;19.80;71.10;;;;;;5037975;28;20026;-67
2023/10/22 09:04:48;;;;;;;4.10;2.55;;;19.80;70.20;;;;;;5037580;28;20034;-67
2023/10/22 09:07:15;;;;;;;2.85;2.25;;;19.90;70.80;;;;;;5037135;28;20025;-67
2023/10/22 09:09:45;;;;;;;4.10;2.03;;;19.90;70.80;;;;;;5019672;28;20030;-66
2023/10/22 09:12:13;;;;;;;3.03;2.10;;;19.90;70.90;;;;;;5037218;28;20032;-67
2023/10/22 09:14:44;;;;;;;3.20;2.15;;;19.90;70.60;;;;;;5037075;28;20112;-67
2023/10/22 09:19:46;;;;;;;3.42;2.00;;;20.00;70.50;;;;;;5036718;28;20068;-67
2023/10/22 09:22:26;;;;;;;4.05;2.90;;;20.10;70.20;;;;;;5037084;28;20116;-67
2023/10/22 09:24:58;;;;;;;2.70;2.08;;;20.10;68.70;;;;;;5003226;28;20025;-67
2023/10/22 09:27:28;;;;;;;3.92;2.20;;;20.20;69.80;;;;;;5036832;28;20443;-67
2023/10/22 09:30:07;;;;;;;2.35;2.15;;;20.10;69.90;;;;;;5037434;28;20078;-67
2023/10/22 09:32:33;;;;;;;3.95;2.53;;;20.20;69.90;;;;;;5019435;28;20025;-67
2023/10/22 09:35:13;;;;;;;4.90;2.60;;;20.20;69.10;;;;;;5036468;28;20060;-67
2023/10/22 09:37:54;;;;;;;3.22;2.60;;;20.20;69.40;;;;;;5036800;28;20033;-67
2023/10/22 09:40:21;;;;;;;4.60;2.35;;;20.20;69.00;;;;;;5019328;28;20072;-67
2023/10/22 09:42:49;;;;;;;5.05;2.60;;;20.20;69.50;;;;;;5036574;28;20022;-63
2023/10/22 09:45:15;;;;;;;3.88;2.60;;;20.20;69.40;;;;;;5018820;28;20089;-63
2023/10/22 09:47:44;;;;;;;3.08;2.30;;;20.30;69.30;;;;;;5034967;28;20473;-63
2023/10/22 09:50:14;;;;;;;3.95;2.40;;;20.30;68.70;;;;;;5018433;28;20415;-64
2023/10/22 09:52:43;;;;;;;3.05;2.15;;;20.40;69.10;;;;;;5035273;28;20028;-64
2023/10/22 09:55:15;;;;;;;5.72;2.40;;;20.40;69.00;;;;;;5018520;28;20029;-63
2023/10/22 09:57:43;;;;;;;4.55;2.72;;;20.40;68.90;;;;;;5035303;28;20026;-63
2023/10/22 10:00:12;;;;;;;2.67;2.45;;;20.40;67.00;;;;;;5035310;28;20028;-63
2023/10/22 10:02:42;;;;;;;3.38;2.50;;;20.40;68.10;;;;;;5036558;28;20035;-63
2023/10/22 10:05:12;;;;;;;4.45;2.30;;;20.50;68.60;;;;;;5019072;28;20029;-63
2023/10/22 10:07:41;;;;;;;4.15;2.03;;;20.50;67.90;;;;;;5019367;28;20056;-63
2023/10/22 10:10:09;;;;;;;3.20;2.28;;;20.50;68.50;;;;;;5036129;28;20036;-63
2023/10/22 10:12:40;;;;;;;4.65;2.00;;;20.60;68.30;;;;;;5002581;28;20033;-64
2023/10/22 10:15:07;;;;;;;3.95;1.90;;;20.60;68.20;;;;;;5036060;28;20125;-63
2023/10/22 10:18:00;;;;;;;4.85;2.20;;;20.70;68.00;;;;;;5036237;28;20122;-64
2023/10/22 10:20:41;;;;;;;5.57;2.58;;;20.70;66.50;;;;;;5035881;28;20504;-64
2023/10/22 10:23:08;;;;;;;3.63;1.60;;;20.70;66.90;;;;;;5035899;28;20025;-64
2023/10/22 10:25:36;;;;;;;2.33;1.77;;;20.80;67.30;;;;;;5035725;28;20021;-63
2023/10/22 10:32:57;;;;;;;4.60;2.13;;;20.90;66.70;;;;;;5036282;28;20044;-64
2023/10/22 10:35:34;;;;;;;4.05;2.10;;;20.90;67.50;;;;;;5035882;28;20049;-64
2023/10/22 10:38:16;;;;;;;2.78;1.83;;;21.00;67.50;;;;;;5035571;28;20017;-64
2023/10/22 10:40:46;;;;;;;3.53;2.10;;;21.10;67.40;;;;;;5035850;28;20036;-64
2023/10/22 10:43:16;;;;;;;3.22;1.80;;;21.10;67.60;;;;;;5035881;28;20025;-64
2023/10/22 10:46:20;;;;;;;2.15;1.80;;;21.20;67.10;;;;;;5035425;28;20026;-64
2023/10/22 10:48:49;;;;;;;3.75;1.92;;;21.20;65.80;;;;;;5035529;28;20040;-64
2023/10/22 10:51:23;;;;;;;3.63;1.90;;;21.30;65.70;;;;;;5036207;28;20029;-64
2023/10/22 10:54:14;;;;;;;3.65;1.80;;;21.30;65.90;;;;;;5018365;28;20044;-63
2023/10/22 10:56:49;;;;;;;3.05;1.60;;;21.40;63.80;;;;;;5017327;28;20181;-64
2023/10/22 10:59:54;;;;;;;3.25;1.67;;;21.40;65.00;;;;;;5015841;28;20109;-64
2023/10/22 11:02:19;;;;;;;4.60;1.30;;;21.40;64.00;;;;;;4918165;29;20394;-64
2023/10/22 11:04:52;;;;;;;3.88;1.60;;;21.50;65.20;;;;;;4917636;29;20448;-64
2023/10/22 11:07:21;;;;;;;3.53;1.80;;;21.50;65.30;;;;;;4917547;29;20488;-64
2023/10/22 11:12:13;;;;;;;2.60;1.70;;;21.50;65.60;;;;;;4918156;29;20044;-64
2023/10/22 11:14:41;;;;;;;1.83;1.40;;;21.60;65.00;;;;;;4917360;29;20020;-64
2023/10/22 11:17:08;;;;;;;2.80;1.42;;;21.60;65.30;;;;;;4917569;29;20091;-64
2023/10/22 11:19:35;;;;;;;4.25;1.83;;;21.60;65.20;;;;;;4917428;29;20051;-64
2023/10/22 11:22:02;;;;;;;3.15;1.90;;;21.60;64.20;;;;;;4917324;29;20071;-64
2023/10/22 11:24:30;;;;;;;6.93;1.80;;;21.60;64.60;;;;;;4917473;29;20466;-64
2023/10/22 11:27:02;;;;;;;2.85;2.17;;;21.70;64.50;;;;;;4917200;29;20059;-63
2023/10/22 11:29:49;;;;;;;3.45;1.90;;;21.80;63.70;;;;;;4917843;29;20083;-65
2023/10/22 11:32:20;;;;;;;5.60;2.17;;;21.80;63.20;;;;;;4917883;29;20091;-64
2023/10/22 11:34:53;;;;;;;4.65;2.00;;;21.80;63.00;;;;;;4917224;29;20039;-64
2023/10/22 11:37:41;;;;;;;;;;;21.80;63.60;;;;;;4918242;28;20079;-64
2023/10/22 11:40:27;;;;;;;3.78;1.80;;;21.80;60.20;;;;;;5015751;28;20223;-64
2023/10/22 11:42:53;;;;;;;2.50;1.60;;;21.80;62.90;;;;;;5016834;28;20105;-64
2023/10/22 11:45:29;;;;;;;1.88;1.35;;;21.90;63.50;;;;;;5019449;28;20028;-64
2023/10/22 11:48:17;;;;;;;5.40;1.75;;;21.80;63.70;;;;;;5018879;28;20025;-64
2023/10/22 11:50:51;;;;;;;4.85;2.00;;;21.90;62.90;;;;;;5019279;28;20471;-64
2023/10/22 11:53:18;;;;;;;3.47;1.92;;;21.90;63.10;;;;;;5019464;28;20040;-64
2023/10/22 11:55:56;;;;;;;3.22;1.75;;;21.90;63.20;;;;;;5018794;28;20022;-64
2023/10/22 11:58:25;;;;;;;3.83;2.15;;;22.00;63.10;;;;;;5019091;28;20049;-64
2023/10/22 12:00:51;;;;;;;3.17;1.80;;;22.00;62.90;;;;;;5001923;28;20489;-64
2023/10/22 12:03:18;;;;;;;7.03;2.40;;;22.00;63.00;;;;;;5018720;28;20061;-64
2023/10/22 12:05:45;;;;;;;3.70;1.75;;;21.90;63.10;;;;;;5018823;28;20033;-64
2023/10/22 12:08:13;;;;;;;2.70;2.00;;;21.90;63.00;;;;;;5018887;28;20113;-64
2023/10/22 12:10:41;;;;;;;5.47;2.20;;;21.90;62.90;;;;;;5019140;28;20026;-64
2023/10/22 12:13:10;;;;;;;3.83;1.80;;;21.90;62.50;;;;;;5018801;28;20026;-64
2023/10/22 12:18:05;;;;;;;5.47;2.40;;;22.00;62.50;;;;;;5019224;28;20109;-64
2023/10/22 12:20:33;;;;;;;3.75;2.20;;;22.00;62.40;;;;;;5018684;28;20073;-64
2023/10/22 12:23:03;;;;;;;3.88;1.52;;;22.00;62.30;;;;;;5018634;28;20019;-64
2023/10/22 12:25:34;;;;;;;2.97;2.00;;;22.10;62.70;;;;;;5018199;28;20400;-64
2023/10/22 12:28:04;;;;;;;4.05;1.92;;;22.10;62.70;;;;;;5018856;28;20076;-64
2023/10/22 12:30:32;;;;;;;5.07;1.90;;;22.10;61.80;;;;;;5018232;28;20014;-64
2023/10/22 12:33:01;;;;;;;5.13;1.70;;;22.10;61.90;;;;;;5018118;28;20029;-65
2023/10/22 12:35:27;;;;;;;2.63;1.45;;;22.10;61.60;;;;;;5017955;28;20037;-64
2023/10/22 12:37:55;;;;;;;4.72;1.70;;;22.10;61.40;;;;;;5018686;28;20029;-64
2023/10/22 12:40:23;;;;;;;4.03;2.10;;;22.20;61.20;;;;;;5018000;28;20018;-64
2023/10/22 12:42:53;;;;;;;4.35;1.88;;;22.20;58.50;;;;;;5018035;28;20114;-64
2023/10/22 12:45:20;;;;;;;4.47;1.80;;;22.20;60.50;;;;;;5018024;28;20025;-64
2023/10/22 12:47:48;;;;;;;4.05;1.70;;;22.10;60.80;;;;;;5017939;28;20061;-64
2023/10/22 12:50:13;;;;;;;5.80;1.90;;;22.20;59.80;;;;;;5018102;28;20104;-64
2023/10/22 12:52:41;;;;;;;5.07;1.70;;;22.20;60.10;;;;;;5017842;28;20152;-64
2023/10/22 12:55:07;;;;;;;3.78;1.90;;;22.20;59.80;;;;;;5031431;28;20146;-64
2023/10/22 12:57:33;;;;;;;3.53;1.73;;;22.20;56.50;;;;;;5035650;28;20040;-64
2023/10/22 13:00:09;;;;;;;4.70;1.67;;;22.10;58.40;;;;;;5036645;28;20029;-64
2023/10/22 13:02:35;;;;;;;5.43;1.80;;;22.10;58.70;;;;;;5036569;28;20041;-64
2023/10/22 13:05:01;;;;;;;4.00;1.60;;;22.10;58.50;;;;;;5036730;28;20029;-64
2023/10/22 13:07:27;;;;;;;3.72;1.73;;;22.10;58.60;;;;;;5036452;28;20032;-63
2023/10/22 13:09:53;;;;;;;3.75;1.80;;;22.10;57.20;;;;;;5036857;28;20053;-64
2023/10/22 13:12:19;;;;;;;8.50;2.10;;;22.10;58.40;;;;;;5037323;28;20063;-64
2023/10/22 13:14:46;;;;;;;5.53;2.20;;;22.10;56.20;;;;;;5037184;28;20025;-64
2023/10/22 13:17:12;;;;;;;4.97;1.63;;;22.10;58.20;;;;;;5037188;28;20021;-64
2023/10/22 13:19:38;;;;;;;2.35;1.95;;;22.10;58.10;;;;;;5037182;28;20031;-64
2023/10/22 13:22:04;;;;;;;4.10;1.42;;;22.00;58.30;;;;;;5037171;28;20357;-64
2023/10/22 13:24:36;;;;;;;3.75;1.35;;;22.00;57.70;;;;;;5037786;28;20121;-64
2023/10/22 13:27:05;;;;;;;6.47;1.90;;;22.00;58.80;;;;;;5036984;28;20116;-64
2023/10/22 13:29:34;;;;;;;3.25;1.60;;;22.10;58.80;;;;;;5037156;28;20085;-64